Portada
METAR-TAF:

METAR-TAF

Aeroports :

Shantou, Xina

latitud: 23-24N, longitud: 116-41E, altitud: 3 m

Observació

L'informe es va fer fa 1 hora i 3 minuts, a les 01:00 UTC
Vent 10 kt del Nord/Nord-Est
Temperatura 21°C
Humitat 60%
Pressió 1022 hPa
Visibilitat 10 km o més
sense núvols per sota de 1500 mi sense presència de cumulonimbus.

METAR: ZGOW 140100Z 02005MPS CAVOK 21/13 Q1022 NOSIG

Hora: 10:03 (02:03 UTC)

Pronòstic

L'informe es va fer fa 6 hores i 58 minuts, a les 19:05 UTC
Pronòstic vàlid del 14 a les 00 UTC al 14 a les 24 UTC
Vent 8 kt del Nord/Nord-Est
Visibilitat: 6000 m
Escasses núvols a una alçada de 5000 ft

TAF: ZGOW 131905Z 1400/1424 02004MPS 6000 FEW050 TX26/1406Z TN14/1422Z

Observacions i pronòstics meteorològics de més de 4000 aeroports (METAR i TAF).

Les estacions disponibles són els punts grocs i vermells al mapa.

Posi el ratolí al punt desitjat per veure el nom de l'estació.

Feu clic per veure les observacions i els pronòstics meteorològics.

Per canviar el mapa: feu clic els botons verds amb una creu de color negre per apropar; al botó verd amb un guió per allunyar la imatge; o en les fletxes verdes per a mapes adjacents.


METAR-TAF: